Time;durP1;ratioP1;P1;durP2;ratioP2;P2;SDS_P1;SDS_P2;PMS_P1;PMS_P2;Temp;Humidity;BMP_temperature;BMP_pressure;BME280_temperature;BME280_humidity;BME280_pressure;Samples;Min_cycle;Max_cycle;Signal;HPM_P1;HPM_P2
2022/07/06 00:03:58;;;;;;;17.20;16.50;;;;;;;16.50;100.00;102754.61;2016772;71;33043;-71
2022/07/06 00:09:37;;;;;;;16.50;15.80;;;;;;;16.02;100.00;102753.95;1995358;71;33027;-71
2022/07/06 00:15:22;;;;;;;16.43;15.70;;;;;;;16.25;100.00;102750.66;2004591;71;33352;-72
2022/07/06 00:21:06;;;;;;;19.57;18.67;;;;;;;16.25;100.00;102760.47;2006282;71;32892;-72
2022/07/06 00:26:50;;;;;;;21.27;19.97;;;;;;;15.78;100.00;102769.01;2013232;71;32842;-71
2022/07/06 00:32:35;;;;;;;21.33;20.23;;;;;;;15.61;100.00;102766.97;2006032;71;32885;-71
2022/07/06 00:38:22;;;;;;;22.77;21.57;;;;;;;15.62;100.00;102756.58;2013611;71;32788;-70
2022/07/06 00:44:10;;;;;;;22.27;21.27;;;;;;;15.66;100.00;102744.55;2008100;71;32849;-72
2022/07/06 00:55:59;;;;;;;22.93;21.83;;;;;;;15.34;100.00;102754.45;1995497;71;32779;-70
2022/07/06 01:01:43;;;;;;;20.30;19.40;;;;;;;15.73;100.00;102740.96;1995377;71;33389;-70
2022/07/06 01:07:28;;;;;;;20.03;19.03;;;;;;;15.93;100.00;102749.98;2000821;71;32921;-70
2022/07/06 01:13:13;;;;;;;20.40;19.30;;;;;;;15.75;100.00;102746.27;2014935;71;32909;-72
2022/07/06 01:18:58;;;;;;;23.50;22.10;;;;;;;15.45;100.00;102757.59;2006404;71;32978;-71
2022/07/06 01:24:42;;;;;;;24.43;23.13;;;;;;;15.04;100.00;102745.30;1991796;71;32907;-72
2022/07/06 01:30:28;;;;;;;23.30;22.10;;;;;;;15.17;100.00;102762.18;2014963;71;33309;-71
2022/07/06 01:36:13;;;;;;;23.03;21.87;;;;;;;15.53;100.00;102763.84;2015141;71;32841;-71
2022/07/06 01:42:01;;;;;;;22.90;21.60;;;;;;;15.67;100.00;102766.41;2002569;71;32841;-70
2022/07/06 01:47:46;;;;;;;22.60;21.50;;;;;;;15.62;100.00;102763.02;1997298;71;33453;-71
2022/07/06 01:53:30;;;;;;;22.60;21.30;;;;;;;15.59;100.00;102769.73;2015056;71;32903;-71
2022/07/06 01:59:14;;;;;;;22.30;21.20;;;;;;;15.40;100.00;102766.54;2015212;71;32959;-71
2022/07/06 02:04:59;;;;;;;25.30;24.00;;;;;;;15.53;100.00;102762.44;1998466;71;32837;-71
2022/07/06 02:10:43;;;;;;;25.03;23.73;;;;;;;14.95;100.00;102766.50;2006260;71;32881;-72
2022/07/06 02:16:27;;;;;;;25.10;23.60;;;;;;;14.99;100.00;102761.20;2008276;71;33254;-71
2022/07/06 02:22:14;;;;;;;27.57;25.97;;;;;;;14.74;100.00;102761.85;2011805;71;32837;-70
2022/07/06 02:27:58;;;;;;;31.63;29.83;;;;;;;14.62;100.00;102768.18;2010138;71;32908;-73
2022/07/06 02:33:42;;;;;;;35.00;33.00;;;;;;;14.36;100.00;102759.25;2014858;71;32928;-71
2022/07/06 02:39:27;;;;;;;37.37;35.27;;;;;;;14.29;100.00;102758.60;2006367;71;33102;-71
2022/07/06 02:45:12;;;;;;;38.77;36.57;;;;;;;14.41;100.00;102760.16;2009683;71;32813;-71
2022/07/06 02:50:56;;;;;;;37.47;35.27;;;;;;;14.25;100.00;102765.24;2009719;71;33304;-70
2022/07/06 02:56:44;;;;;;;36.27;34.03;;;;;;;14.35;100.00;102768.70;2000703;71;32801;-71
2022/07/06 03:02:28;;;;;;;35.90;33.90;;;;;;;14.32;100.00;102765.90;2014971;71;32991;-70
2022/07/06 03:08:12;;;;;;;34.33;32.40;;;;;;;14.47;100.00;102772.22;2005615;71;32808;-71
2022/07/06 03:13:56;;;;;;;34.90;32.90;;;;;;;14.43;100.00;102769.11;2002810;71;32861;-69
2022/07/06 03:19:41;;;;;;;40.33;38.17;;;;;;;14.20;100.00;102767.16;2000753;71;32849;-69
2022/07/06 03:25:27;;;;;;;44.50;42.00;;;;;;;14.02;100.00;102764.16;2009642;71;33409;-70
2022/07/06 03:37:15;;;;;;;40.83;38.57;;;;;;;14.39;100.00;102745.58;2018417;71;32841;-69
2022/07/06 03:42:59;;;;;;;38.97;36.77;;;;;;;14.54;100.00;102752.73;2008077;71;32883;-69
2022/07/06 03:48:43;;;;;;;36.73;34.63;;;;;;;14.88;100.00;102749.66;1998266;71;32943;-69
2022/07/06 03:54:28;;;;;;;33.47;31.47;;;;;;;15.13;100.00;102767.19;1995465;71;32847;-69
2022/07/06 04:00:14;;;;;;;32.90;31.00;;;;;;;15.32;100.00;102748.27;2012521;71;39734;-69
2022/07/06 04:05:58;;;;;;;32.50;30.60;;;;;;;15.15;100.00;102743.39;2000750;71;32738;-69
2022/07/06 04:11:42;;;;;;;33.97;32.00;;;;;;;15.18;100.00;102744.28;2000749;71;32949;-69
2022/07/06 04:23:28;;;;;;;37.43;35.13;;;;;;;15.21;100.00;102739.53;2016760;71;32956;-69
2022/07/06 04:29:13;;;;;;;36.53;34.43;;;;;;;15.25;100.00;102737.02;2013507;71;32745;-70
2022/07/06 04:34:58;;;;;;;36.23;34.27;;;;;;;15.25;100.00;102736.47;2016864;71;33485;-69
2022/07/06 04:40:42;;;;;;;36.33;34.33;;;;;;;15.14;100.00;102745.09;2016710;71;32920;-70
2022/07/06 04:46:27;;;;;;;37.27;35.00;;;;;;;15.19;100.00;102742.33;2017070;71;32817;-69
2022/07/06 04:52:11;;;;;;;36.90;34.70;;;;;;;15.35;100.00;102746.34;2015148;71;32917;-69
2022/07/06 04:57:55;;;;;;;36.40;34.10;;;;;;;15.44;100.00;102745.27;2013267;71;32803;-70
2022/07/06 05:03:40;;;;;;;35.40;33.30;;;;;;;15.50;100.00;102744.20;2005813;71;32960;-69
2022/07/06 05:09:25;;;;;;;34.00;32.00;;;;;;;15.57;100.00;102739.77;2013183;70;32878;-69
2022/07/06 05:15:12;;;;;;;37.17;34.87;;;;;;;15.73;100.00;102754.97;2004527;71;32801;-69
2022/07/06 05:20:56;;;;;;;33.50;31.70;;;;;;;15.83;100.00;102748.57;2005701;71;32802;-69
2022/07/06 05:26:40;;;;;;;32.30;30.40;;;;;;;16.16;100.00;102750.91;2009771;71;32847;-69
2022/07/06 05:32:24;;;;;;;32.87;30.97;;;;;;;16.24;100.00;102748.97;1997132;71;33388;-71
2022/07/06 05:38:09;;;;;;;34.13;32.13;;;;;;;16.40;100.00;102755.44;2005919;71;32885;-69
2022/07/06 05:43:53;;;;;;;33.60;31.70;;;;;;;16.42;100.00;102756.57;1998767;70;33396;-69
2022/07/06 05:55:39;;;;;;;33.07;31.17;;;;;;;16.60;100.00;102744.84;2014744;71;32967;-71
2022/07/06 06:01:23;;;;;;;33.10;31.10;;;;;;;16.79;100.00;102740.34;2000507;71;32973;-70
2022/07/06 06:07:07;;;;;;;31.53;29.57;;;;;;;16.76;100.00;102731.09;2009511;71;33047;-70
2022/07/06 06:12:52;;;;;;;31.57;29.77;;;;;;;16.71;100.00;102738.10;2015144;71;32877;-71
2022/07/06 06:18:37;;;;;;;33.37;31.50;;;;;;;16.65;100.00;102748.47;1995039;71;33434;-71
2022/07/06 06:24:23;;;;;;;36.37;34.37;;;;;;;16.74;100.00;102751.56;2014947;70;32808;-71
2022/07/06 06:30:09;;;;;;;37.00;34.80;;;;;;;16.73;100.00;102755.48;2006280;71;33320;-70
2022/07/06 06:35:56;;;;;;;37.13;35.03;;;;;;;16.83;100.00;102763.36;2017143;71;32878;-70
2022/07/06 06:41:41;;;;;;;39.00;36.90;;;;;;;17.17;100.00;102764.17;2009568;71;33337;-70
2022/07/06 06:47:25;;;;;;;35.60;33.60;;;;;;;17.87;100.00;102767.38;2016905;71;30861;-70
2022/07/06 06:53:10;;;;;;;39.00;36.90;;;;;;;18.32;100.00;102767.69;2014873;71;32986;-70
2022/07/06 06:58:54;;;;;;;36.10;34.00;;;;;;;18.12;100.00;102772.03;2011791;71;30917;-70
2022/07/06 07:04:40;;;;;;;38.87;36.77;;;;;;;18.01;100.00;102759.98;2004068;71;30944;-70
2022/07/06 07:10:24;;;;;;;39.53;37.30;;;;;;;17.93;100.00;102758.33;2000732;71;32754;-70
2022/07/06 07:16:08;;;;;;;42.50;40.13;;;;;;;17.97;100.00;102760.88;2013662;71;30931;-71
2022/07/06 07:21:52;;;;;;;41.63;39.17;;;;;;;18.08;100.00;102761.92;2017127;71;33379;-70
2022/07/06 07:27:37;;;;;;;43.40;40.90;;;;;;;18.13;100.00;102777.38;1995358;71;32824;-70
2022/07/06 07:33:44;;;;;;;42.13;39.73;;;;;;;18.06;100.00;102769.80;2016762;71;30951;-71
2022/07/06 07:39:30;;;;;;;46.13;43.23;;;;;;;18.29;100.00;102775.30;2013277;71;32966;-70
2022/07/06 07:45:14;;;;;;;45.50;42.70;;;;;;;18.44;100.00;102758.31;2014765;71;32941;-70
2022/07/06 07:50:58;;;;;;;42.93;40.27;;;;;;;18.89;100.00;102759.97;2000756;71;31039;-70
2022/07/06 07:56:43;;;;;;;40.40;38.00;;;;;;;19.38;100.00;102752.70;2015017;71;31041;-70
2022/07/06 08:02:27;;;;;;;38.30;35.90;;;;;;;19.60;100.00;102762.64;2007744;71;31434;-72
2022/07/06 08:08:11;;;;;;;42.17;39.77;;;;;;;19.50;100.00;102756.58;1999312;71;30977;-70
2022/07/06 08:13:55;;;;;;;43.30;40.90;;;;;;;19.37;100.00;102746.82;2007530;71;30948;-71
2022/07/06 08:19:39;;;;;;;43.13;40.57;;;;;;;19.41;100.00;102746.50;2010089;71;30959;-71
2022/07/06 08:25:23;;;;;;;42.07;39.67;;;;;;;19.56;100.00;102737.03;1995060;71;30956;-70
2022/07/06 08:31:08;;;;;;;42.20;39.50;;;;;;;19.81;100.00;102729.66;1995156;71;33312;-70
2022/07/06 08:36:52;;;;;;;40.53;38.23;;;;;;;20.15;100.00;102715.96;1999216;71;33281;-70
2022/07/06 08:42:38;;;;;;;39.57;37.47;;;;;;;20.52;100.00;102710.89;1970052;72;31498;-71
2022/07/06 08:48:27;;;;;;;36.20;34.20;;;;;;;20.72;100.00;102711.37;2000221;71;30926;-70
2022/07/06 08:54:13;;;;;;;33.93;32.13;;;;;;;20.96;100.00;102698.54;2004669;71;31362;-71
2022/07/06 08:59:58;;;;;;;31.20;29.40;;;;;;;21.31;100.00;102699.84;2006402;71;30872;-70
2022/07/06 09:05:46;;;;;;;29.23;27.53;;;;;;;21.38;100.00;102691.80;2013671;71;31020;-70
2022/07/06 09:11:30;;;;;;;28.30;26.60;;;;;;;21.36;100.00;102688.44;1999301;71;30853;-70
2022/07/06 09:17:15;;;;;;;26.80;25.20;;;;;;;21.23;100.00;102707.07;2009639;71;31352;-71
2022/07/06 09:23:03;;;;;;;27.03;25.50;;;;;;;21.12;100.00;102717.45;2013114;71;30931;-70
2022/07/06 09:28:48;;;;;;;28.90;27.30;;;;;;;21.22;100.00;102720.12;2016688;71;30899;-71
2022/07/06 09:34:44;;;;;;;28.80;27.20;;;;;;;21.26;100.00;102723.43;2006047;71;31497;-71
2022/07/06 09:40:33;;;;;;;29.13;27.63;;;;;;;21.21;100.00;102714.20;1993660;71;33270;-71
2022/07/06 09:46:29;;;;;;;25.47;24.07;;;;;;;21.46;100.00;102715.11;2011522;71;30953;-71
2022/07/06 09:52:16;;;;;;;25.20;23.80;;;;;;;21.56;100.00;102705.02;2002826;70;31465;-70
2022/07/06 09:58:03;;;;;;;23.77;22.63;;;;;;;21.60;100.00;102713.70;2006996;71;30935;-71
2022/07/06 10:03:47;;;;;;;23.47;22.32;;;;;;;21.78;100.00;102700.83;2018651;71;30939;-70
2022/07/06 10:09:32;;;;;;;22.07;21.07;;;;;;;21.88;100.00;102694.69;2000916;71;31005;-69
2022/07/06 10:15:19;;;;;;;20.87;19.97;;;;;;;21.94;100.00;102693.46;2000718;71;30870;-70
2022/07/06 10:21:07;;;;;;;20.83;19.93;;;;;;;22.03;100.00;102686.74;2014914;71;33461;-70
2022/07/06 10:26:52;;;;;;;20.17;19.17;;;;;;;22.15;100.00;102687.02;2016829;71;31055;-71
2022/07/06 10:32:38;;;;;;;18.63;17.73;;;;;;;22.10;100.00;102677.80;2001182;71;30839;-70
2022/07/06 10:38:32;;;;;;;19.02;18.23;;;;;;;22.11;100.00;102669.57;2003819;71;30857;-71
2022/07/06 10:44:22;;;;;;;19.20;18.40;;;;;;;22.17;100.00;102661.20;2016945;71;31400;-70
2022/07/06 10:50:13;;;;;;;18.00;17.30;;;;;;;22.18;100.00;102649.56;2005996;71;33354;-71
2022/07/06 10:56:09;;;;;;;19.43;18.63;;;;;;;22.24;100.00;102642.63;2011185;71;30975;-70
2022/07/06 11:02:14;;;;;;;18.70;17.90;;;;;;;22.25;100.00;102637.20;2011390;71;30952;-71
2022/07/06 11:08:02;;;;;;;17.90;17.10;;;;;;;22.30;100.00;102641.06;2016802;71;30915;-70
2022/07/06 11:14:02;;;;;;;18.00;17.30;;;;;;;22.45;100.00;102647.20;1995266;71;30905;-70
2022/07/06 11:20:00;;;;;;;16.10;15.32;;;;;;;22.63;100.00;102652.41;2006420;71;30960;-70
2022/07/06 11:25:46;;;;;;;15.87;15.17;;;;;;;22.75;100.00;102653.25;2016916;71;31031;-70
2022/07/06 11:31:31;;;;;;;15.63;14.90;;;;;;;22.76;100.00;102643.02;2007818;71;30968;-70
2022/07/06 11:37:20;;;;;;;14.15;13.50;;;;;;;22.99;100.00;102647.47;2004201;71;30945;-70
2022/07/06 11:43:04;;;;;;;14.27;13.50;;;;;;;22.84;100.00;102642.81;2000193;71;30993;-70
2022/07/06 11:48:50;;;;;;;14.33;13.40;;;;;;;22.89;100.00;102645.51;1995387;71;31447;-70
2022/07/06 11:54:34;;;;;;;14.10;13.40;;;;;;;23.02;100.00;102643.13;2011373;71;30894;-70
2022/07/06 12:00:23;;;;;;;14.13;13.55;;;;;;;23.10;100.00;102650.86;2011655;71;31007;-70
2022/07/06 12:06:19;;;;;;;13.53;12.93;;;;;;;23.23;100.00;102644.83;2010062;71;31458;-70
2022/07/06 12:12:07;;;;;;;13.25;12.75;;;;;;;23.39;100.00;102653.98;2002268;71;30936;-70
2022/07/06 12:17:52;;;;;;;13.58;12.98;;;;;;;23.21;100.00;102654.23;1991574;70;30825;-71
2022/07/06 12:23:45;;;;;;;12.70;12.20;;;;;;;23.25;100.00;102637.66;2009622;71;30929;-70
2022/07/06 12:29:30;;;;;;;12.33;11.78;;;;;;;23.26;100.00;102642.17;2014921;70;30886;-70
2022/07/06 12:35:15;;;;;;;12.63;12.03;;;;;;;23.26;100.00;102634.23;2004584;71;30836;-71
2022/07/06 12:41:12;;;;;;;12.28;11.80;;;;;;;23.35;100.00;102636.52;2008652;71;31063;-70
2022/07/06 12:47:06;;;;;;;12.30;11.80;;;;;;;23.23;100.00;102628.66;1997053;71;30835;-70
2022/07/06 12:52:51;;;;;;;11.60;11.10;;;;;;;23.32;100.00;102630.10;2004058;71;30995;-70
2022/07/06 12:58:38;;;;;;;11.75;11.33;;;;;;;23.46;100.00;102627.98;2013130;71;31027;-71
2022/07/06 13:04:22;;;;;;;11.78;11.38;;;;;;;23.32;100.00;102625.84;2000416;71;30984;-70
2022/07/06 13:10:11;;;;;;;11.90;11.50;;;;;;;23.24;100.00;102628.05;2016762;71;30871;-71
2022/07/06 13:15:56;;;;;;;11.88;11.33;;;;;;;23.46;100.00;102618.89;2009839;71;31484;-70
2022/07/06 13:21:40;;;;;;;12.20;11.80;;;;;;;23.56;100.00;102612.08;2011534;70;30904;-70
2022/07/06 13:27:25;;;;;;;12.03;11.43;;;;;;;23.63;100.00;102608.16;1991840;71;30875;-70
2022/07/06 13:33:10;;;;;;;11.78;11.15;;;;;;;23.67;100.00;102609.17;2014940;71;31011;-69
2022/07/06 13:38:57;;;;;;;11.22;10.82;;;;;;;23.65;100.00;102613.52;2011580;71;31359;-71
2022/07/06 13:44:41;;;;;;;11.20;10.68;;;;;;;23.42;100.00;102619.27;2013746;71;31259;-70
2022/07/06 13:50:31;;;;;;;11.53;11.03;;;;;;;23.49;100.00;102608.91;2016855;71;31035;-70
2022/07/06 13:56:13;;;;;;;10.93;10.43;;;;;;;23.57;100.00;102595.32;2013396;71;31480;-70
2022/07/06 14:01:58;;;;;;;11.10;10.70;;;;;;;23.46;100.00;102602.45;2010082;71;31434;-70
2022/07/06 14:07:42;;;;;;;11.60;11.20;;;;;;;23.43;100.00;102596.00;2018480;71;31411;-70
2022/07/06 14:13:26;;;;;;;11.38;10.90;;;;;;;23.52;100.00;102586.95;2002765;71;31396;-71
2022/07/06 14:19:10;;;;;;;11.78;11.08;;;;;;;23.43;100.00;102565.67;2014734;71;31399;-70
2022/07/06 14:24:55;;;;;;;11.33;10.72;;;;;;;23.47;100.00;102557.33;2004250;71;31471;-72
2022/07/06 14:30:52;;;;;;;11.10;10.70;;;;;;;23.75;100.00;102557.25;2000945;71;31369;-71
2022/07/06 14:36:38;;;;;;;11.70;11.10;;;;;;;23.92;100.00;102547.31;2013423;71;31419;-73
2022/07/06 14:42:22;;;;;;;11.00;10.60;;;;;;;24.17;100.00;102536.32;1980133;72;31049;-71
2022/07/06 14:48:08;;;;;;;10.98;10.55;;;;;;;24.08;100.00;102534.05;2009685;70;31413;-70
2022/07/06 14:53:52;;;;;;;10.60;10.20;;;;;;;24.13;100.00;102542.39;2008349;71;31448;-73
2022/07/06 14:59:38;;;;;;;11.20;10.70;;;;;;;24.03;100.00;102539.31;2004632;71;30923;-72
2022/07/06 15:05:22;;;;;;;10.88;10.28;;;;;;;24.24;100.00;102529.53;2002248;71;30993;-73
2022/07/06 15:11:07;;;;;;;10.90;10.50;;;;;;;24.15;100.00;102510.22;2007903;71;30937;-72
2022/07/06 15:16:54;;;;;;;10.70;10.25;;;;;;;24.25;100.00;102505.06;2015137;71;30941;-74
2022/07/06 15:22:38;;;;;;;10.25;9.85;;;;;;;24.09;100.00;102503.88;2017079;71;30942;-73
2022/07/06 15:28:26;;;;;;;10.90;10.40;;;;;;;24.07;100.00;102501.97;2001019;71;30904;-73
2022/07/06 15:34:11;;;;;;;10.75;10.20;;;;;;;24.39;100.00;102490.63;2002632;71;30926;-74
2022/07/06 15:43:02;;;;;;;10.55;10.10;;;;;;;24.00;100.00;102481.17;2042432;69;30547;-73
2022/07/06 15:45:33;;;;;;;10.93;10.43;;;;;;;24.09;100.00;102473.25;1938315;73;24165;-72
2022/07/06 15:48:04;;;;;;;10.40;10.00;;;;;;;24.08;100.00;102477.25;1937914;73;24156;-72
2022/07/06 15:50:36;;;;;;;10.48;10.08;;;;;;;23.85;100.00;102476.04;1966161;73;24707;-72
2022/07/06 15:53:07;;;;;;;10.72;10.32;;;;;;;23.77;100.00;102471.21;1937833;74;24588;-72
2022/07/06 15:55:37;;;;;;;10.30;10.00;;;;;;;23.55;100.00;102473.64;1945015;73;24160;-72
2022/07/06 15:58:07;;;;;;;10.53;10.10;;;;;;;23.56;100.00;102462.55;1945332;73;24171;-73
2022/07/06 16:00:38;;;;;;;11.10;10.40;;;;;;;23.77;100.00;102468.95;1939691;73;24207;-72
2022/07/06 16:03:08;;;;;;;10.68;10.18;;;;;;;23.90;100.00;102468.77;1934176;73;24195;-72
2022/07/06 16:05:38;;;;;;;10.72;10.30;;;;;;;24.04;100.00;102458.65;1931417;73;24209;-72
2022/07/06 16:08:08;;;;;;;11.40;10.80;;;;;;;24.17;100.00;102448.28;1940842;73;24740;-72
2022/07/06 16:10:39;;;;;;;10.58;10.18;;;;;;;23.90;100.00;102451.74;1939233;73;24207;-73
2022/07/06 16:13:11;;;;;;;10.70;10.30;;;;;;;23.94;100.00;102452.73;1936287;73;24590;-73
2022/07/06 16:15:41;;;;;;;10.35;9.95;;;;;;;23.93;100.00;102440.28;1948269;73;24159;-73
2022/07/06 16:18:12;;;;;;;10.78;10.10;;;;;;;23.93;100.00;102440.28;1930548;73;24629;-72
2022/07/06 16:20:42;;;;;;;10.98;10.38;;;;;;;24.02;100.00;102437.68;1935529;73;24238;-72
2022/07/06 16:23:12;;;;;;;9.53;9.15;;;;;;;23.96;100.00;102431.12;1937299;73;24689;-71
2022/07/06 16:25:43;;;;;;;10.00;9.60;;;;;;;24.03;100.00;102422.91;1966117;73;24099;-76
2022/07/06 16:28:13;;;;;;;10.95;10.13;;;;;;;24.00;100.00;102421.55;1932140;73;24250;-76
2022/07/06 16:30:43;;;;;;;10.58;10.10;;;;;;;24.00;100.00;102422.17;2016403;70;24158;-76
2022/07/06 16:33:14;;;;;;;13.05;11.85;;;;;;;23.98;100.00;102416.81;2016256;70;24623;-74
2022/07/06 16:35:44;;;;;;;13.38;12.30;;;;;;;23.95;100.00;102424.59;2009948;70;24633;-73
2022/07/06 16:38:14;;;;;;;10.45;9.95;;;;;;;23.89;100.00;102419.42;2011919;70;24622;-74
2022/07/06 16:40:45;;;;;;;16.00;14.70;;;;;;;24.01;100.00;102415.30;1960924;72;24144;-74
2022/07/06 16:43:16;;;;;;;20.17;18.07;;;;;;;24.10;100.00;102413.27;1954204;72;24562;-74
2022/07/06 16:45:46;;;;;;;22.55;20.43;;;;;;;24.14;100.00;102411.41;1942188;74;24128;-73
2022/07/06 16:48:16;;;;;;;26.50;22.75;;;;;;;23.91;100.00;102406.58;1907396;75;24127;-73
2022/07/06 16:50:46;;;;;;;21.87;19.92;;;;;;;23.46;100.00;102409.56;1954275;73;24120;-73
2022/07/06 16:53:17;;;;;;;22.17;19.95;;;;;;;23.35;100.00;102415.30;1907079;75;24118;-72
2022/07/06 16:55:49;;;;;;;14.80;13.80;;;;;;;23.30;100.00;102406.37;1953722;73;24540;-73
2022/07/06 16:58:19;;;;;;;17.60;16.02;;;;;;;23.32;100.00;102398.36;1906757;75;24174;-73
2022/07/06 17:00:49;;;;;;;16.90;15.45;;;;;;;23.33;100.00;102401.45;1953697;73;24249;-72
2022/07/06 17:03:19;;;;;;;16.10;14.90;;;;;;;23.30;100.00;102402.13;1906838;75;24185;-72
2022/07/06 17:05:51;;;;;;;11.08;10.60;;;;;;;23.31;100.00;102406.64;1953634;73;24555;-72
2022/07/06 17:08:21;;;;;;;14.00;13.00;;;;;;;23.34;100.00;102405.96;1953535;73;24116;-72
2022/07/06 17:10:51;;;;;;;13.68;12.68;;;;;;;23.42;100.00;102400.02;1906883;75;24135;-75
2022/07/06 17:13:21;;;;;;;13.65;12.78;;;;;;;23.36;100.00;102402.80;1953742;73;24194;-75
2022/07/06 17:15:52;;;;;;;12.53;11.83;;;;;;;23.39;100.00;102402.13;1906880;75;24130;-74
2022/07/06 17:18:22;;;;;;;13.08;11.93;;;;;;;23.38;100.00;102406.12;1953708;73;24112;-74
2022/07/06 17:20:52;;;;;;;11.48;10.80;;;;;;;23.38;100.00;102404.13;1906959;75;24232;-74
2022/07/06 17:23:24;;;;;;;11.88;11.20;;;;;;;23.36;100.00;102396.52;1953562;73;24153;-75
2022/07/06 17:25:56;;;;;;;10.45;10.05;;;;;;;23.39;100.00;102399.28;1953597;73;24539;-74
2022/07/06 17:28:28;;;;;;;11.45;10.85;;;;;;;23.47;100.00;102398.48;1906892;75;24142;-76
2022/07/06 17:30:58;;;;;;;10.25;9.75;;;;;;;23.41;100.00;102396.35;1953580;73;24124;-76
2022/07/06 17:33:28;;;;;;;11.15;10.50;;;;;;;23.40;100.00;102393.88;1906777;75;24664;-74
2022/07/06 17:35:58;;;;;;;10.48;10.08;;;;;;;23.53;100.00;102388.63;1953694;73;24229;-77
2022/07/06 17:38:29;;;;;;;10.98;10.48;;;;;;;23.50;100.00;102386.45;1906836;75;24174;-75
2022/07/06 17:41:01;;;;;;;10.77;10.30;;;;;;;23.41;100.00;102390.68;1953732;73;24602;-72
2022/07/06 17:43:31;;;;;;;10.93;10.18;;;;;;;23.29;100.00;102392.52;1906661;74;24229;-73
2022/07/06 17:46:02;;;;;;;10.40;9.80;;;;;;;23.37;100.00;102386.84;1953645;73;24124;-75
2022/07/06 17:48:32;;;;;;;10.03;9.58;;;;;;;23.44;100.00;102393.48;1906744;75;24724;-75
2022/07/06 17:51:02;;;;;;;11.08;10.55;;;;;;;23.46;100.00;102390.55;1953644;73;24600;-74
2022/07/06 17:53:32;;;;;;;10.80;10.10;;;;;;;23.48;100.00;102393.06;1906742;75;24146;-74
2022/07/06 17:56:03;;;;;;;10.53;10.13;;;;;;;23.49;100.00;102392.70;1953598;73;24124;-74
2022/07/06 17:58:33;;;;;;;10.30;9.80;;;;;;;23.52;100.00;102386.95;1906739;75;24123;-74
2022/07/06 18:01:04;;;;;;;10.95;10.10;;;;;;;23.48;100.00;102397.31;1953700;73;24112;-73
2022/07/06 18:03:34;;;;;;;10.80;10.30;;;;;;;23.53;100.00;102391.47;1953453;73;24132;-73
2022/07/06 18:06:04;;;;;;;11.12;10.20;;;;;;;23.49;100.00;102389.86;1906733;75;24200;-74
2022/07/06 18:08:38;;;;;;;10.65;10.03;;;;;;;23.42;100.00;102386.68;1953540;73;24116;-74
2022/07/06 18:11:09;;;;;;;10.70;10.08;;;;;;;23.43;100.00;102388.39;1906608;75;24135;-75
2022/07/06 18:13:40;;;;;;;10.38;9.83;;;;;;;23.36;100.00;102392.27;1953559;73;24260;-75
2022/07/06 18:16:10;;;;;;;10.50;10.10;;;;;;;23.42;100.00;102388.09;1906711;75;24688;-75
2022/07/06 18:18:40;;;;;;;10.40;10.00;;;;;;;23.37;100.00;102393.94;1953619;73;24558;-75
2022/07/06 18:21:10;;;;;;;10.45;10.05;;;;;;;23.37;100.00;102394.52;1906746;75;24134;-74
2022/07/06 18:23:41;;;;;;;10.50;10.00;;;;;;;23.62;100.00;102390.04;1953410;73;24656;-75
2022/07/06 18:29:25;;;;;;;10.03;9.68;;;;;;;23.85;100.00;102375.28;2004242;71;30858;-77
2022/07/06 18:35:11;;;;;;;9.98;9.58;;;;;;;23.86;100.00;102382.63;1936763;74;31612;-74
2022/07/06 18:40:56;;;;;;;9.93;9.53;;;;;;;23.85;100.00;102382.37;2004392;71;30910;-74
2022/07/06 18:46:40;;;;;;;10.00;9.60;;;;;;;23.83;100.00;102379.02;1991614;71;30826;-74
2022/07/06 18:52:25;;;;;;;9.93;9.50;;;;;;;23.79;100.00;102392.23;2006326;71;30945;-77
2022/07/06 18:58:12;;;;;;;9.60;9.20;;;;;;;23.75;100.00;102406.01;2013601;71;30799;-73
2022/07/06 19:03:57;;;;;;;8.85;8.55;;;;;;;23.70;100.00;102394.86;1991431;71;30820;-74
2022/07/06 19:09:41;;;;;;;10.10;9.70;;;;;;;23.67;100.00;102387.00;2009297;71;30986;-73
2022/07/06 19:15:26;;;;;;;9.15;8.85;;;;;;;23.66;100.00;102391.03;1991850;71;30821;-72
2022/07/06 19:21:10;;;;;;;10.20;9.80;;;;;;;23.61;100.00;102396.88;2005829;71;31031;-74
2022/07/06 19:26:54;;;;;;;9.65;9.23;;;;;;;23.66;100.00;102396.70;1997098;71;30983;-75
2022/07/06 19:32:39;;;;;;;10.00;9.60;;;;;;;23.38;100.00;102397.03;1998660;71;31034;-73
2022/07/06 19:38:24;;;;;;;9.68;9.28;;;;;;;23.37;100.00;102400.19;2011482;71;30994;-73
2022/07/06 19:44:10;;;;;;;9.53;9.13;;;;;;;23.09;100.00;102391.20;2013369;71;30922;-74
2022/07/06 19:49:54;;;;;;;9.40;8.98;;;;;;;23.09;100.00;102394.88;2002448;71;31084;-72
2022/07/06 19:55:38;;;;;;;10.00;9.60;;;;;;;22.98;100.00;102392.67;2015214;71;30984;-72
2022/07/06 20:01:23;;;;;;;10.70;10.20;;;;;;;22.71;100.00;102388.16;2006450;71;30945;-71
2022/07/06 20:07:08;;;;;;;9.35;9.05;;;;;;;22.62;100.00;102401.44;2015292;70;30944;-72
2022/07/06 20:12:52;;;;;;;9.75;9.35;;;;;;;22.73;100.00;102402.81;2014930;71;30862;-86
2022/07/06 20:18:36;;;;;;;10.00;9.50;;;;;;;22.74;100.00;102414.41;2000869;71;31309;-72
2022/07/06 20:24:20;;;;;;;10.65;10.08;;;;;;;22.89;100.00;102415.34;2002815;71;31306;-73
2022/07/06 20:30:07;;;;;;;10.53;10.13;;;;;;;22.74;100.00;102422.91;2015220;71;30865;-73
2022/07/06 20:35:51;;;;;;;10.30;9.90;;;;;;;22.46;100.00;102437.85;2004127;71;30892;-72
2022/07/06 20:41:35;;;;;;;11.00;10.60;;;;;;;22.24;100.00;102449.27;2016970;71;33319;-69
2022/07/06 20:47:19;;;;;;;11.97;11.47;;;;;;;21.98;100.00;102468.10;2013420;71;31419;-74
2022/07/06 20:53:05;;;;;;;11.50;11.00;;;;;;;21.80;100.00;102464.28;2015183;71;31393;-72
2022/07/06 20:58:50;;;;;;;11.57;11.10;;;;;;;21.48;100.00;102471.02;1991683;71;31317;-72
2022/07/06 21:04:35;;;;;;;12.80;12.30;;;;;;;21.34;100.00;102475.90;2002431;71;30957;-75
2022/07/06 21:10:20;;;;;;;12.77;12.17;;;;;;;21.21;100.00;102467.72;2015038;71;31501;-74
2022/07/06 21:16:04;;;;;;;13.83;13.27;;;;;;;21.12;100.00;102466.79;2006315;71;30852;-73
2022/07/06 21:21:48;;;;;;;14.20;13.60;;;;;;;21.06;100.00;102464.34;2006478;71;31399;-75
2022/07/06 21:27:33;;;;;;;14.20;13.63;;;;;;;21.01;100.00;102459.65;2002703;71;30826;-74
2022/07/06 21:33:17;;;;;;;15.23;14.63;;;;;;;20.87;100.00;102463.94;2008082;71;30922;-72
2022/07/06 21:39:02;;;;;;;18.20;17.30;;;;;;;20.72;100.00;102471.30;2000155;71;31063;-73
2022/07/06 21:44:47;;;;;;;16.37;15.67;;;;;;;20.73;100.00;102483.44;2008297;71;30884;-72
2022/07/06 21:50:31;;;;;;;16.30;15.60;;;;;;;20.48;100.00;102479.73;2005903;71;31078;-70
2022/07/06 21:56:16;;;;;;;17.03;16.23;;;;;;;20.39;100.00;102489.50;2016883;71;31510;-70
2022/07/06 22:02:00;;;;;;;18.33;17.53;;;;;;;20.24;100.00;102491.98;2016868;71;33483;-70
2022/07/06 22:07:46;;;;;;;20.10;19.30;;;;;;;20.00;100.00;102492.16;2009569;71;31129;-70
2022/07/06 22:13:42;;;;;;;20.33;19.53;;;;;;;19.73;100.00;102479.36;2006409;71;30945;-70
2022/07/06 22:19:27;;;;;;;20.30;19.50;;;;;;;19.57;100.00;102484.99;1998931;71;31010;-70
2022/07/06 22:25:12;;;;;;;22.23;21.33;;;;;;;19.50;100.00;102485.39;2009688;71;33468;-69
2022/07/06 22:30:56;;;;;;;22.30;21.30;;;;;;;19.51;100.00;102484.23;2011319;71;30948;-70
2022/07/06 22:36:40;;;;;;;23.03;22.00;;;;;;;19.30;100.00;102478.60;2002925;71;31409;-69
2022/07/06 22:42:24;;;;;;;23.40;22.33;;;;;;;19.23;100.00;102482.38;1974408;72;33525;-70
2022/07/06 22:48:09;;;;;;;23.43;22.33;;;;;;;19.32;100.00;102468.45;1998922;71;30934;-70
2022/07/06 22:53:54;;;;;;;24.07;22.97;;;;;;;19.27;100.00;102469.92;2011503;71;30993;-70